Ee Endeavour — ZDIL9 — position and weather

sailwx.info

Track history (hours):
 
Tides and Currents Weather Stations Pressure Air Temp Water Temp Dewpoint Dewpoint Depression Visibility Wind Speed Wind Dir Waves Ship Positions

Ee Endeavour

Last reported at 2013-Sep-05 18:29 UTC. Time now 2014-Sep-18 03:35 UTC.
Position N 10°05' E 123°21'.
Warning: this ship's position is years out of date!

Length 93 m; draft 4.5 m.

Type: Cargo ship. MMSI: 236457000.

Date/timePositionNaut miles runAvg speedWind from/ knotsBaromVisibWave heightAir tempDewpointWater temp
2013-Sep-05 18:29N 10°05' E 123°21'9 8.0
2013-Sep-05 17:20N 09°56' E 123°18'7 8.0
2013-Sep-05 16:30N 09°50' E 123°17'7 8.0
2013-Sep-05 15:33N 09°42' E 123°16'8 8.0
2013-Sep-05 14:33N 09°34' E 123°15'9 9.2
2013-Sep-05 13:33N 09°25' E 123°16'10 9.6
2013-Sep-05 12:33N 09°17' E 123°22'9 9.1
2013-Sep-05 11:33N 09°08' E 123°22'8 7.9
2013-Sep-05 10:33N 09°01' E 123°18'9 8.9
2013-Sep-05 09:33N 08°55' E 123°11'8 8.6
2013-Sep-05 08:33N 08°52' E 123°03'9 9.0
2013-Sep-05 07:30N 08°50' E 122°54'11 9.6
2013-Sep-05 06:19N 08°48' E 122°42'  
2013-Aug-31 08:06N 01°15' E 104°05'5 9.5
2013-Aug-31 07:31N 01°14' E 103°59'10 9.6
2013-Aug-31 06:32N 01°10' E 103°51'9 9.2
2013-Aug-31 05:34N 01°05' E 103°43'10 8.8
2013-Aug-31 04:28N 01°06' E 103°34'1010.1
2013-Aug-31 03:30N 01°11' E 103°25'  
Track history (hours):
 
Tides and Currents Weather Stations Pressure Air Temp Water Temp Dewpoint Dewpoint Depression Visibility Wind Speed Wind Dir Waves Ship Positions

Ee Endeavour

Last reported at 2013-Sep-05 18:29 UTC. Time now 2014-Sep-18 03:35 UTC.
Position N 10°05' E 123°21'.
Warning: this ship's position is years out of date!

Length 93 m; draft 4.5 m.

Type: Cargo ship. MMSI: 236457000.

Date/timePositionNaut miles runAvg speedWind from/ knotsBaromVisibWave heightAir tempDewpointWater temp
2013-Sep-05 18:29N 10°05' E 123°21'9 8.0
2013-Sep-05 17:20N 09°56' E 123°18'7 8.0
2013-Sep-05 16:30N 09°50' E 123°17'7 8.0
2013-Sep-05 15:33N 09°42' E 123°16'8 8.0
2013-Sep-05 14:33N 09°34' E 123°15'9 9.2
2013-Sep-05 13:33N 09°25' E 123°16'10 9.6
2013-Sep-05 12:33N 09°17' E 123°22'9 9.1
2013-Sep-05 11:33N 09°08' E 123°22'8 7.9
2013-Sep-05 10:33N 09°01' E 123°18'9 8.9
2013-Sep-05 09:33N 08°55' E 123°11'8 8.6
2013-Sep-05 08:33N 08°52' E 123°03'9 9.0
2013-Sep-05 07:30N 08°50' E 122°54'11 9.6
2013-Sep-05 06:19N 08°48' E 122°42'  
2013-Aug-31 08:06N 01°15' E 104°05'5 9.5
2013-Aug-31 07:31N 01°14' E 103°59'10 9.6
2013-Aug-31 06:32N 01°10' E 103°51'9 9.2
2013-Aug-31 05:34N 01°05' E 103°43'10 8.8
2013-Aug-31 04:28N 01°06' E 103°34'1010.1
2013-Aug-31 03:30N 01°11' E 103°25'  

Dump ship's entire track history